createdAt,value
2022-10-24T00:01:38.327Z,96037.19
2022-10-24T00:06:39.074Z,96052.56
2022-10-24T00:09:08.830Z,96049.38
2022-10-24T00:11:38.523Z,96048.59
2022-10-24T00:14:06.416Z,96037.78
2022-10-24T00:16:35.753Z,96026.81
2022-10-24T00:19:03.655Z,96034.81
2022-10-24T00:21:31.519Z,96041.00
2022-10-24T00:23:59.377Z,96037.97
2022-10-24T00:26:30.080Z,96027.66
2022-10-24T00:28:57.969Z,96022.56
2022-10-24T00:31:25.839Z,96033.97
2022-10-24T00:33:53.720Z,96024.78
2022-10-24T00:36:23.277Z,96034.63
2022-10-24T00:38:52.446Z,96019.19
2022-10-24T00:41:22.625Z,96022.69
2022-10-24T00:43:51.872Z,96021.94
2022-10-24T00:46:21.618Z,96031.94
2022-10-24T00:48:53.199Z,96006.50
2022-10-24T00:51:24.625Z,96021.31
2022-10-24T00:53:55.314Z,96023.97
2022-10-24T00:56:26.068Z,96024.28
2022-10-24T00:58:57.908Z,96036.84
2022-10-24T01:01:26.091Z,96041.72
2022-10-24T01:03:53.937Z,96035.38
2022-10-24T01:06:35.642Z,96038.34
2022-10-24T01:09:14.600Z,96034.50
2022-10-24T01:11:57.681Z,96035.31
2022-10-24T01:14:51.711Z,96032.41
2022-10-24T01:17:26.748Z,96029.38
2022-10-24T01:20:18.638Z,96037.66
2022-10-24T01:23:02.307Z,96040.06
2022-10-24T01:25:42.224Z,96040.34
2022-10-24T01:28:15.661Z,96040.44
2022-10-24T01:30:48.617Z,96037.13
2022-10-24T01:33:24.192Z,96034.06
2022-10-24T01:35:56.931Z,96030.84
2022-10-24T01:38:31.724Z,96038.38
2022-10-24T01:41:04.712Z,96032.72
2022-10-24T01:43:37.226Z,96026.06
2022-10-24T01:46:10.993Z,96027.09
2022-10-24T01:48:42.568Z,96027.81
2022-10-24T01:51:12.891Z,96041.13
2022-10-24T01:53:43.403Z,96038.72
2022-10-24T01:56:11.575Z,96034.31
2022-10-24T01:58:39.431Z,96032.59
2022-10-24T02:01:13.449Z,96026.72
2022-10-24T02:03:45.874Z,96024.97
2022-10-24T02:06:20.328Z,96030.78
2022-10-24T02:08:54.139Z,96028.34
2022-10-24T02:11:22.039Z,96025.00
2022-10-24T02:13:57.467Z,96041.84
2022-10-24T02:16:27.073Z,96046.00
2022-10-24T02:18:57.447Z,96042.91
2022-10-24T02:21:32.922Z,96021.59
2022-10-24T02:24:04.327Z,96033.41
2022-10-24T02:26:35.660Z,96042.72
2022-10-24T02:29:08.440Z,96045.16
2022-10-24T02:31:42.460Z,96035.56
2022-10-24T02:34:13.881Z,95980.72
2022-10-24T02:36:45.152Z,96033.69
2022-10-24T02:39:14.073Z,96038.13
2022-10-24T02:41:44.669Z,96039.53
2022-10-24T02:44:15.507Z,96036.50
2022-10-24T02:46:47.484Z,96037.88
2022-10-24T02:49:15.777Z,96034.84
2022-10-24T02:51:45.964Z,96037.41
2022-10-24T02:54:14.328Z,96032.16
2022-10-24T02:56:47.087Z,96031.06
2022-10-24T02:59:15.049Z,96032.47
2022-10-24T03:01:44.347Z,96033.44
2022-10-24T03:04:12.245Z,96033.22
2022-10-24T03:06:40.079Z,96034.34
2022-10-24T03:09:07.934Z,96023.56
2022-10-24T03:11:35.960Z,96023.09
2022-10-24T03:14:04.055Z,96026.41
2022-10-24T03:16:32.009Z,96032.22
2022-10-24T03:19:01.327Z,96025.31
2022-10-24T03:21:29.163Z,95986.25
2022-10-24T03:23:57.036Z,96019.63
2022-10-24T03:26:24.919Z,96017.50
2022-10-24T03:28:52.778Z,96020.53
2022-10-24T03:31:20.656Z,96026.47
2022-10-24T03:33:48.532Z,96021.38
2022-10-24T03:36:17.955Z,96024.44
2022-10-24T03:38:45.821Z,96026.47
2022-10-24T03:41:13.668Z,96025.00
2022-10-24T03:43:41.521Z,96027.19
2022-10-24T03:46:09.475Z,96025.00
2022-10-24T03:48:37.516Z,96034.19
2022-10-24T03:51:05.452Z,96031.78
2022-10-24T03:53:34.631Z,96029.03
2022-10-24T03:56:02.562Z,96026.66
2022-10-24T03:58:30.436Z,96022.97
2022-10-24T04:00:59.409Z,96017.44
2022-10-24T04:03:28.134Z,96019.81
2022-10-24T04:05:56.088Z,96031.66
2022-10-24T04:08:23.968Z,96015.50
2022-10-24T04:10:53.209Z,96024.50
2022-10-24T04:13:21.099Z,96017.34
2022-10-24T04:15:48.996Z,96021.16
2022-10-24T04:18:16.835Z,96016.84
2022-10-24T04:20:44.677Z,96014.75
2022-10-24T04:23:12.540Z,96008.63
2022-10-24T04:25:41.003Z,96020.41
2022-10-24T04:28:10.288Z,96019.03
2022-10-24T04:30:38.189Z,96011.25
2022-10-24T04:33:06.048Z,96029.88
2022-10-24T04:35:33.897Z,96018.13
2022-10-24T04:38:01.760Z,96029.78
2022-10-24T04:40:29.600Z,96031.00
2022-10-24T04:42:57.467Z,96019.97
2022-10-24T04:45:26.641Z,96025.16
2022-10-24T04:47:54.469Z,96025.84
2022-10-24T04:50:22.292Z,96034.78
2022-10-24T04:52:50.163Z,96039.56
2022-10-24T04:55:18.803Z,96046.19
2022-10-24T04:57:46.915Z,96043.97
2022-10-24T05:00:15.658Z,96051.81
2022-10-24T05:02:45.185Z,96045.03
2022-10-24T05:05:13.433Z,96043.03
2022-10-24T05:07:41.261Z,96020.03
2022-10-24T05:10:09.923Z,96039.50
2022-10-24T05:12:38.286Z,96038.19
2022-10-24T05:15:07.660Z,96050.66
2022-10-24T05:17:36.015Z,96043.03
2022-10-24T05:20:06.143Z,96046.47
2022-10-24T05:22:34.091Z,96041.56
2022-10-24T05:25:01.980Z,96044.72
2022-10-24T05:27:29.822Z,96046.81
2022-10-24T05:29:57.827Z,96037.53
2022-10-24T05:32:26.174Z,96041.38
2022-10-24T05:34:54.152Z,96028.91
2022-10-24T05:37:23.454Z,96034.47
2022-10-24T05:39:51.356Z,96025.47
2022-10-24T05:42:19.231Z,95979.25
2022-10-24T05:44:47.107Z,96044.84
2022-10-24T05:47:15.003Z,96032.28
2022-10-24T05:49:42.988Z,96049.47
2022-10-24T05:52:10.819Z,96045.91
2022-10-24T05:54:55.208Z,96054.59
2022-10-24T05:57:28.259Z,96065.06
2022-10-24T05:59:56.087Z,96052.03
2022-10-24T06:02:24.220Z,96063.72
2022-10-24T06:04:52.137Z,96070.84
2022-10-24T06:07:20.104Z,96066.06
2022-10-24T06:09:49.322Z,96053.44
2022-10-24T06:12:17.183Z,96064.06
2022-10-24T06:14:45.762Z,96072.28
2022-10-24T06:17:13.627Z,96067.81
2022-10-24T06:19:41.662Z,96059.72
2022-10-24T06:22:10.167Z,96066.16
2022-10-24T06:24:39.297Z,96069.25
2022-10-24T06:27:08.541Z,96070.69
2022-10-24T06:29:36.820Z,96066.81
2022-10-24T06:32:04.889Z,96078.56
2022-10-24T06:34:32.889Z,96083.38
2022-10-24T06:37:00.776Z,96068.44
2022-10-24T06:39:28.700Z,96074.16
2022-10-24T06:41:56.625Z,96078.13
2022-10-24T06:44:25.931Z,96081.81
2022-10-24T06:46:53.833Z,96080.34
2022-10-24T06:49:21.699Z,96087.13
2022-10-24T06:51:49.558Z,96087.47
2022-10-24T06:54:17.529Z,96073.59
2022-10-24T06:56:45.474Z,96095.69
2022-10-24T06:59:17.363Z,96079.56
2022-10-24T07:01:46.832Z,96088.03
2022-10-24T07:04:14.844Z,96089.78
2022-10-24T07:06:42.695Z,96078.91
2022-10-24T07:09:15.148Z,96081.44
2022-10-24T07:11:43.633Z,96078.47
2022-10-24T07:14:11.886Z,96092.88
2022-10-24T07:16:40.268Z,96084.78
2022-10-24T07:19:09.903Z,96080.63
2022-10-24T07:21:38.783Z,96073.94
2022-10-24T07:24:07.794Z,96071.06
2022-10-24T07:26:35.637Z,96083.09
2022-10-24T07:29:04.610Z,96083.69
2022-10-24T07:31:34.966Z,96084.34
2022-10-24T07:34:04.823Z,96081.63
2022-10-24T07:36:34.353Z,96070.84
2022-10-24T07:39:02.324Z,96076.44
2022-10-24T07:41:32.162Z,96075.13
2022-10-24T07:44:02.240Z,96084.94
2022-10-24T07:46:30.570Z,96044.88
2022-10-24T07:48:58.723Z,96101.53
2022-10-24T07:51:28.548Z,96077.63
2022-10-24T07:53:58.297Z,96084.94
2022-10-24T07:56:26.438Z,96076.28
2022-10-24T07:58:55.126Z,96077.69
2022-10-24T08:01:25.329Z,96069.38
2022-10-24T08:03:53.344Z,96077.38
2022-10-24T08:06:23.279Z,96070.91
2022-10-24T08:08:51.400Z,96015.41
2022-10-24T08:11:22.272Z,96068.88
2022-10-24T08:13:51.214Z,96062.88
2022-10-24T08:16:22.004Z,96063.66
2022-10-24T08:18:52.095Z,96048.47
2022-10-24T08:21:21.428Z,96059.19
2022-10-24T08:23:52.164Z,96054.94
2022-10-24T08:26:23.591Z,96056.13
2022-10-24T08:28:51.883Z,96058.16
2022-10-24T08:31:22.114Z,96004.94
2022-10-24T08:33:52.999Z,96053.13
2022-10-24T08:36:24.319Z,96050.81
2022-10-24T08:38:52.216Z,96045.56
2022-10-24T08:41:27.862Z,96044.25
2022-10-24T08:43:57.460Z,96050.97
2022-10-24T08:46:38.351Z,96039.78
2022-10-24T08:49:15.205Z,96043.34
2022-10-24T08:51:47.212Z,96033.47
2022-10-24T08:54:19.574Z,95960.63
2022-10-24T08:56:49.482Z,96022.81
2022-10-24T08:59:17.431Z,96033.19
2022-10-24T09:01:49.637Z,96021.34
2022-10-24T09:04:21.111Z,96020.28
2022-10-24T09:06:50.218Z,96015.53
2022-10-24T09:09:24.385Z,96012.31
2022-10-24T09:11:55.990Z,96023.28
2022-10-24T09:14:27.428Z,96001.66
2022-10-24T09:16:59.918Z,96007.66
2022-10-24T09:19:30.397Z,96016.38
2022-10-24T09:22:00.137Z,96012.31
2022-10-24T09:24:34.492Z,96010.66
2022-10-24T09:27:06.908Z,96007.63
2022-10-24T09:29:35.141Z,96010.88
2022-10-24T09:32:04.333Z,96006.09
2022-10-24T09:34:32.233Z,96001.31
2022-10-24T09:37:00.185Z,96000.16
2022-10-24T09:39:31.299Z,95999.84
2022-10-24T09:42:00.882Z,95996.69
2022-10-24T09:44:34.464Z,95992.75
2022-10-24T09:47:04.528Z,95985.28
2022-10-24T09:49:36.568Z,95992.66
2022-10-24T09:52:09.788Z,95984.28
2022-10-24T09:54:38.050Z,95978.00
2022-10-24T09:57:13.453Z,95989.16
2022-10-24T09:59:45.189Z,95990.66
2022-10-24T10:02:21.009Z,95989.16
2022-10-24T10:04:50.234Z,95978.50
2022-10-24T10:07:20.386Z,95976.59
2022-10-24T10:09:56.520Z,95922.28
2022-10-24T10:12:30.401Z,95965.72
2022-10-24T10:15:00.599Z,95962.94
2022-10-24T10:17:31.336Z,95953.28
2022-10-24T10:19:59.834Z,95961.38
2022-10-24T10:22:30.229Z,95948.72
2022-10-24T10:24:59.216Z,95955.81
2022-10-24T10:27:32.103Z,95957.38
2022-10-24T10:30:22.101Z,95951.31
2022-10-24T10:33:12.666Z,95945.31
2022-10-24T10:35:49.530Z,95862.00
2022-10-24T10:38:37.316Z,95935.44
2022-10-24T10:41:08.940Z,95939.16
2022-10-24T10:43:44.228Z,95933.59
2022-10-24T10:46:24.123Z,95914.81
2022-10-24T10:49:03.966Z,95925.91
2022-10-24T10:51:43.529Z,95896.66
2022-10-24T10:54:25.161Z,95920.41
2022-10-24T10:56:55.628Z,95913.59
2022-10-24T10:59:40.247Z,95917.09
2022-10-24T11:02:28.212Z,95786.88
2022-10-24T11:05:05.551Z,95903.44
2022-10-24T11:07:41.958Z,95906.34
2022-10-24T11:10:14.030Z,95904.09
2022-10-24T11:12:44.843Z,95898.78
2022-10-24T11:15:21.374Z,95905.84
2022-10-24T11:17:56.953Z,95891.09
2022-10-24T11:20:28.984Z,95890.47
2022-10-24T11:23:01.587Z,95886.88
2022-10-24T11:25:37.420Z,95881.97
2022-10-24T11:28:13.560Z,95879.50
2022-10-24T11:30:48.366Z,95858.59
2022-10-24T11:33:21.247Z,95878.63
2022-10-24T11:36:08.341Z,95863.22
2022-10-24T11:38:41.989Z,95852.00
2022-10-24T11:41:48.144Z,95860.50
2022-10-24T11:44:31.520Z,95858.03
2022-10-24T11:47:08.607Z,95842.06
2022-10-24T11:49:43.131Z,95849.63
2022-10-24T11:52:18.180Z,95844.31
2022-10-24T11:54:52.766Z,95838.03
2022-10-24T11:57:25.006Z,95839.56
2022-10-24T11:59:54.352Z,95836.13
2022-10-24T12:03:18.980Z,95834.22
2022-10-24T12:06:01.526Z,95821.63
2022-10-24T12:08:48.743Z,95828.94
2022-10-24T12:11:40.328Z,95828.38
2022-10-24T12:14:27.061Z,95817.19
2022-10-24T12:17:15.909Z,95813.88
2022-10-24T12:19:46.644Z,95817.25
2022-10-24T12:22:21.939Z,95805.47
2022-10-24T12:24:50.509Z,95819.09
2022-10-24T12:27:28.295Z,95794.31
2022-10-24T12:30:05.954Z,95800.41
2022-10-24T12:32:40.608Z,95761.78
2022-10-24T12:35:44.401Z,95796.97
2022-10-24T12:38:20.262Z,95778.38
2022-10-24T12:40:52.189Z,95810.00
2022-10-24T12:43:44.319Z,95794.06
2022-10-24T12:46:53.663Z,95786.22
2022-10-24T12:49:28.347Z,95784.00
2022-10-24T12:51:57.128Z,95733.81
2022-10-24T12:54:43.044Z,95787.63
2022-10-24T12:57:23.896Z,95766.03
2022-10-24T12:59:53.808Z,95654.09
2022-10-24T13:02:48.319Z,95768.47
2022-10-24T13:05:34.963Z,95769.72
2022-10-24T13:08:19.094Z,95772.59
2022-10-24T13:10:59.060Z,95770.56
2022-10-24T13:14:06.533Z,95767.41
2022-10-24T13:16:45.277Z,95760.75
2022-10-24T13:19:18.511Z,95765.31
2022-10-24T13:21:49.247Z,95771.63
2022-10-24T13:24:25.800Z,95762.88
2022-10-24T13:27:38.391Z,95764.66
2022-10-24T13:30:34.699Z,95775.00
2022-10-24T13:33:41.031Z,95765.25
2022-10-24T13:36:16.653Z,95771.06
2022-10-24T13:38:49.555Z,95762.72
2022-10-24T13:41:24.850Z,95765.56
2022-10-24T13:43:56.165Z,95759.47
2022-10-24T13:46:34.218Z,95764.50
2022-10-24T13:49:04.231Z,95710.88
2022-10-24T13:51:38.136Z,95753.56
2022-10-24T13:54:12.277Z,95752.72
2022-10-24T13:56:44.342Z,95754.25
2022-10-24T13:59:30.474Z,95753.63
2022-10-24T14:02:03.091Z,95752.47
2022-10-24T14:04:32.000Z,95712.16
2022-10-24T14:07:03.667Z,95738.19
2022-10-24T14:09:32.157Z,95638.13
2022-10-24T14:12:00.051Z,95741.44
2022-10-24T14:14:31.326Z,95741.88
2022-10-24T14:17:23.315Z,95740.75
2022-10-24T14:19:55.552Z,95742.34
2022-10-24T14:22:26.175Z,95742.50
2022-10-24T14:24:54.080Z,95741.22
2022-10-24T14:27:22.368Z,95742.06
2022-10-24T14:30:01.842Z,95735.84
2022-10-24T14:32:32.326Z,95737.50
2022-10-24T14:37:37.612Z,95741.16
2022-10-24T14:40:07.160Z,95739.34
2022-10-24T14:42:35.710Z,95730.34
2022-10-24T14:45:03.615Z,95729.53
2022-10-24T14:47:38.921Z,95729.34
2022-10-24T14:50:37.988Z,95730.25
2022-10-24T14:53:06.568Z,95735.88
2022-10-24T14:55:34.782Z,95710.88
2022-10-24T14:58:02.642Z,95728.13
2022-10-24T15:00:39.361Z,95741.13
2022-10-24T15:03:11.096Z,95733.75
2022-10-24T15:05:41.487Z,95722.00
2022-10-24T15:08:28.889Z,95731.53
2022-10-24T15:11:15.164Z,95726.50
2022-10-24T15:13:59.974Z,95718.69
2022-10-24T15:16:37.740Z,95724.19
2022-10-24T15:19:13.696Z,95725.81
2022-10-24T15:21:47.309Z,95717.25
2022-10-24T15:24:22.917Z,95724.75
2022-10-24T15:26:50.879Z,95725.94
2022-10-24T15:29:21.995Z,95728.34
2022-10-24T15:31:51.829Z,95729.16
2022-10-24T15:34:22.822Z,95731.53
2022-10-24T15:36:53.125Z,95733.91
2022-10-24T15:39:24.403Z,95729.19
2022-10-24T15:41:52.853Z,95720.19
2022-10-24T15:44:24.970Z,95730.81
2022-10-24T15:46:52.796Z,95733.56
2022-10-24T15:49:22.307Z,95737.06
2022-10-24T15:51:51.427Z,95733.13
2022-10-24T15:54:21.255Z,95731.94
2022-10-24T15:56:49.314Z,95740.94
2022-10-24T15:59:18.543Z,95731.88
2022-10-24T16:01:50.750Z,95740.09
2022-10-24T16:04:20.170Z,95669.38
2022-10-24T16:06:49.683Z,95738.84
2022-10-24T16:09:20.257Z,95692.06
2022-10-24T16:11:48.604Z,95739.94
2022-10-24T16:14:17.935Z,95742.25
2022-10-24T16:16:45.826Z,95738.28
2022-10-24T16:19:13.717Z,95746.84
2022-10-24T16:21:42.631Z,95751.50
2022-10-24T16:24:14.057Z,95751.88
2022-10-24T16:26:42.209Z,95746.75
2022-10-24T16:29:10.036Z,95750.63
2022-10-24T16:31:38.375Z,95749.00
2022-10-24T16:34:07.377Z,95758.34
2022-10-24T16:36:35.317Z,95759.88
2022-10-24T16:39:03.634Z,95752.19
2022-10-24T16:41:33.002Z,95762.25
2022-10-24T16:44:01.037Z,95761.38
2022-10-24T16:46:29.323Z,95762.56
2022-10-24T16:48:58.064Z,95765.69
2022-10-24T16:51:32.013Z,95740.13
2022-10-24T16:54:00.376Z,95761.72
2022-10-24T16:56:28.349Z,95760.78
2022-10-24T16:58:57.636Z,95763.78
2022-10-24T17:01:27.547Z,95766.72
2022-10-24T17:03:55.844Z,95761.31
2022-10-24T17:06:24.005Z,95760.91
2022-10-24T17:08:52.603Z,95764.47
2022-10-24T17:11:43.683Z,95762.22
2022-10-24T17:14:10.371Z,95758.34
2022-10-24T17:16:38.236Z,95761.00
2022-10-24T17:19:15.701Z,95756.91
2022-10-24T17:21:46.780Z,95760.34
2022-10-24T17:24:16.219Z,95756.47
2022-10-24T17:26:44.294Z,95744.28
2022-10-24T17:29:20.274Z,95761.09
2022-10-24T17:31:48.505Z,95763.06
2022-10-24T17:34:16.635Z,95770.72
2022-10-24T17:36:48.406Z,95726.50
2022-10-24T17:39:22.259Z,95750.13
2022-10-24T17:41:53.786Z,95766.94
2022-10-24T17:44:23.716Z,95767.97
2022-10-24T17:46:55.905Z,95771.72
2022-10-24T17:49:26.682Z,95743.50
2022-10-24T17:51:54.588Z,95770.59
2022-10-24T17:54:22.901Z,95751.47
2022-10-24T17:56:50.958Z,95722.13
2022-10-24T17:59:18.843Z,95765.41
2022-10-24T18:01:48.229Z,95764.22
2022-10-24T18:04:16.617Z,95762.56
2022-10-24T18:06:44.786Z,95771.63
2022-10-24T18:09:13.278Z,95769.31
2022-10-24T18:11:41.220Z,95753.25
2022-10-24T18:14:09.166Z,95765.41
2022-10-24T18:16:39.438Z,95757.97
2022-10-24T18:19:08.707Z,95758.47
2022-10-24T18:21:36.635Z,95751.56
2022-10-24T18:24:07.385Z,95620.28
2022-10-24T18:26:35.424Z,95767.53
2022-10-24T18:29:03.271Z,95768.59
2022-10-24T18:31:33.977Z,95769.69
2022-10-24T18:34:06.051Z,95773.22
2022-10-24T18:36:37.487Z,95771.44
2022-10-24T18:39:06.081Z,95758.09
2022-10-24T18:41:44.964Z,95760.72
2022-10-24T18:44:24.237Z,95765.34
2022-10-24T18:46:53.453Z,95749.72
2022-10-24T18:49:22.004Z,95758.47
2022-10-24T18:52:02.759Z,95770.25
2022-10-24T18:54:31.408Z,95763.22
2022-10-24T18:57:00.792Z,95770.94
2022-10-24T18:59:30.861Z,95761.84
2022-10-24T19:02:17.076Z,95749.69
2022-10-24T19:04:49.236Z,95767.78
2022-10-24T19:07:19.563Z,95763.09
2022-10-24T19:09:47.610Z,95746.00
2022-10-24T19:12:17.729Z,95750.41
2022-10-24T19:14:47.206Z,95715.06
2022-10-24T19:17:16.278Z,95756.19
2022-10-24T19:19:44.335Z,95758.56
2022-10-24T19:22:12.201Z,95764.34
2022-10-24T19:24:41.477Z,95765.66
2022-10-24T19:27:09.531Z,95766.53
2022-10-24T19:29:37.531Z,95767.59
2022-10-24T19:32:05.668Z,95772.16
2022-10-24T19:34:34.836Z,95766.38
2022-10-24T19:37:03.781Z,95772.25
2022-10-24T19:39:33.895Z,95772.88
2022-10-24T19:42:03.452Z,95723.38
2022-10-24T19:44:31.272Z,95777.94
2022-10-24T19:46:59.106Z,95767.50
2022-10-24T19:49:26.949Z,95762.72
2022-10-24T19:51:56.836Z,95764.97
2022-10-24T19:54:24.721Z,95776.97
2022-10-24T19:56:54.406Z,95772.50
2022-10-24T19:59:23.680Z,95765.97
2022-10-24T20:01:51.608Z,95772.13
2022-10-24T20:04:19.656Z,95769.84
2022-10-24T20:06:48.028Z,95768.34
2022-10-24T20:09:16.030Z,95776.28
2022-10-24T20:11:43.873Z,95725.75
2022-10-24T20:14:11.771Z,95771.72
2022-10-24T20:16:41.038Z,95779.78
2022-10-24T20:19:08.883Z,95762.56
2022-10-24T20:21:37.626Z,95771.19
2022-10-24T20:24:06.189Z,95773.38
2022-10-24T20:26:34.325Z,95781.59
2022-10-24T20:29:02.349Z,95771.88
2022-10-24T20:31:32.376Z,95778.94
2022-10-24T20:34:07.996Z,95773.41
2022-10-24T20:36:37.076Z,95783.91
2022-10-24T20:39:05.537Z,95791.19
2022-10-24T20:41:33.472Z,95795.75
2022-10-24T20:44:02.496Z,95772.94
2022-10-24T20:46:30.389Z,95798.56
2022-10-24T20:48:58.768Z,95803.91
2022-10-24T20:51:28.262Z,95799.38
2022-10-24T20:53:56.126Z,95797.22
2022-10-24T20:56:26.764Z,95795.66
2022-10-24T20:58:56.331Z,95800.09
2022-10-24T21:01:25.717Z,95617.25
2022-10-24T21:03:54.844Z,95749.50
2022-10-24T21:06:24.965Z,95765.53
2022-10-24T21:08:56.413Z,95782.31
2022-10-24T21:11:27.344Z,95790.84
2022-10-24T21:13:57.125Z,95789.38
2022-10-24T21:16:26.050Z,95785.41
2022-10-24T21:18:54.424Z,95784.53
2022-10-24T21:21:23.686Z,95791.09
2022-10-24T21:23:52.832Z,95781.19
2022-10-24T21:26:22.783Z,95779.94
2022-10-24T21:28:53.999Z,95781.19
2022-10-24T21:31:27.311Z,95785.22
2022-10-24T21:33:55.818Z,95787.06
2022-10-24T21:36:24.540Z,95791.91
2022-10-24T21:38:54.093Z,95717.72
2022-10-24T21:41:24.049Z,95786.16
2022-10-24T21:43:53.010Z,95769.44
2022-10-24T21:46:22.483Z,95783.66
2022-10-24T21:48:52.143Z,95798.56
2022-10-24T21:51:21.834Z,95798.09
2022-10-24T21:53:51.387Z,95768.19
2022-10-24T21:56:21.172Z,95782.31
2022-10-24T21:58:52.018Z,95784.22
2022-10-24T22:01:21.781Z,95776.53
2022-10-24T22:03:49.695Z,95771.47
2022-10-24T22:06:19.271Z,95730.28
2022-10-24T22:08:48.568Z,95787.47
2022-10-24T22:11:18.328Z,95790.63
2022-10-24T22:13:46.592Z,95792.19
2022-10-24T22:16:17.775Z,95785.19
2022-10-24T22:18:46.127Z,95783.38
2022-10-24T22:21:23.687Z,95782.84
2022-10-24T22:23:51.636Z,95768.53
2022-10-24T22:26:19.660Z,95772.00
2022-10-24T22:28:47.537Z,95760.72
2022-10-24T22:31:17.792Z,95778.22
2022-10-24T22:33:46.261Z,95741.16
2022-10-24T22:36:20.971Z,95780.34
2022-10-24T22:38:53.124Z,95782.47
2022-10-24T22:41:21.700Z,95782.91
2022-10-24T22:43:50.278Z,95780.34
2022-10-24T22:46:33.906Z,95782.03
2022-10-24T22:51:42.979Z,95785.63
2022-10-24T22:54:17.809Z,95775.13
2022-10-24T22:56:46.279Z,95780.91
2022-10-24T22:59:14.606Z,95776.06
2022-10-24T23:01:57.924Z,95783.88
2022-10-24T23:04:35.063Z,95775.94
2022-10-24T23:07:11.394Z,95778.78
2022-10-24T23:09:39.277Z,95781.91
2022-10-24T23:12:13.602Z,95777.06
2022-10-24T23:14:42.182Z,95786.53
2022-10-24T23:17:13.929Z,95791.88
2022-10-24T23:19:46.865Z,95787.25
2022-10-24T23:22:23.080Z,95778.34
2022-10-24T23:24:52.118Z,95785.00
2022-10-24T23:27:44.970Z,95797.03
2022-10-24T23:30:19.082Z,95786.97
2022-10-24T23:32:49.931Z,95784.34
2022-10-24T23:35:20.323Z,95790.06
2022-10-24T23:37:50.038Z,95795.34
2022-10-24T23:40:29.997Z,95786.50
2022-10-24T23:42:58.921Z,95780.50
2022-10-24T23:45:28.491Z,95645.19
2022-10-24T23:48:08.703Z,95794.59
2022-10-24T23:50:45.873Z,95791.50
2022-10-24T23:53:24.911Z,95789.88
2022-10-24T23:55:53.437Z,95785.91
2022-10-24T23:58:21.477Z,95774.75
